首页
METAR-TAF:

METAR-TAF

机场 :

科希策, 斯洛伐克

纬度: 48-39-47N, 经度: 021-14-28E, 海拔: 232米

当前天气观测

该预报发布于20分钟前的04:00 UTC
风速3节,风向东北
温度 3°C
湿度 100%
气压 1029 hPa
能見度: 0050
多云层高于100英尺

METAR: LZKZ 260400Z 05003KT 0050 R01/0225N FG BKN001 03/03 Q1029

时间: 05:20 (04:20 UTC)

预报

该预报发布于5小时和20分钟前的23:00 UTC
预报有效从26日的 00点(UTC)到 27日的 00点(UTC)
风速2节,风向多变
能見度: 3500
散云层高于500英尺
部分雾
成为
从 26日的 00点(UTC)到 26日的 02点(UTC)
能見度: 0700
少量云层高于400英尺
短暂存在
从 26日的 02点(UTC)到 26日的 08点(UTC)
能見度: 0300
多云层高于200英尺
成为
从 26日的 08点(UTC)到 26日的 10点(UTC)
风速4节,风向
能見度: 3500
轻雾
成为
从 26日的 10点(UTC)到 26日的 12点(UTC)
风速5节,风向
能见度10公里或以上
1500米以下无云,无积雨云
成为
从 26日的 21点(UTC)到 26日的 23点(UTC)
风速15节,风向
能见度10公里或以上
多云层高于3000英尺
多云层高于6000英尺

TAF: LZKZ 252300Z 2600/2700 VRB02KT 3500 PRFG SCT005 BECMG 2600/2602 0700 FG FEW004 TEMPO 2602/2608 0300 FG BKN002 BECMG 2608/2610 01004KT 3500 BR BECMG 2610/2612 19005KT CAVOK BECMG 2621/2623 01015KT 9999 BKN030 BKN060

超过4000个机场的气象观测和天气预报(METAR&TAF报告)。

可查询的气象台以黄色和红色小点在地图上表示。

将鼠标移到小点上方,可查看气象台名称。

然后点击查看天气观测和预报。

如需切换地图:点击带黑十字的绿色按钮放大地图;点击带横线的绿色按钮缩小地图;或者点击绿色箭头查看邻近地区的地图。


METAR-TAF: